Time;durP1;ratioP1;P1;durP2;ratioP2;P2;SDS_P1;SDS_P2;PMS_P1;PMS_P2;Temp;Humidity;BMP_temperature;BMP_pressure;BME280_temperature;BME280_humidity;BME280_pressure;Samples;Min_cycle;Max_cycle;Signal;HPM_P1;HPM_P2
2022/03/04 00:02:17;;;;;;;22.90;13.25;;;;;;;-145.45;100.00;62759.84;5283889;28;20028;-81
2022/03/04 00:04:49;;;;;;;22.95;13.25;;;;;;;-145.45;100.00;62759.84;5282742;28;20104;-82
2022/03/04 00:07:20;;;;;;;20.08;13.18;;;;;;;-145.45;100.00;62759.84;5282816;28;20033;-81
2022/03/04 00:09:51;;;;;;;22.52;12.85;;;;;;;-145.45;100.00;62759.84;5262980;28;20024;-82
2022/03/04 00:12:23;;;;;;;21.88;12.82;;;;;;;-145.45;100.00;62759.84;5283305;28;20021;-81
2022/03/04 00:14:54;;;;;;;17.77;12.55;;;;;;;-145.45;100.00;62759.84;5264176;28;20056;-81
2022/03/04 00:17:25;;;;;;;22.88;13.93;;;;;;;-145.45;100.00;62759.84;5283295;28;20505;-82
2022/03/04 00:19:57;;;;;;;20.15;12.70;;;;;;;-145.45;100.00;62759.84;5282788;28;20025;-81
2022/03/04 00:22:28;;;;;;;21.90;13.30;;;;;;;-145.45;100.00;62759.84;5263959;28;20037;-81
2022/03/04 00:24:59;;;;;;;22.75;13.30;;;;;;;-145.45;100.00;62759.84;5281113;28;20367;-82
2022/03/04 00:27:31;;;;;;;19.65;13.05;;;;;;;-145.45;100.00;62759.84;5263686;28;20029;-81
2022/03/04 00:30:03;;;;;;;25.10;13.32;;;;;;;-145.45;100.00;62759.84;5280206;28;20021;-80
2022/03/04 00:32:36;;;;;;;20.40;12.82;;;;;;;-145.45;100.00;62759.84;5281327;28;20108;-80
2022/03/04 00:35:08;;;;;;;23.48;13.40;;;;;;;-145.45;100.00;62759.84;5281308;28;20036;-80
2022/03/04 00:37:40;;;;;;;26.80;15.77;;;;;;;-145.45;100.00;62759.84;5282572;28;20021;-80
2022/03/04 00:40:14;;;;;;;19.52;12.98;;;;;;;-145.45;100.00;62759.84;5280372;28;20163;-80
2022/03/04 00:42:45;;;;;;;20.85;13.60;;;;;;;-145.45;100.00;62759.84;5286363;28;20505;-80
2022/03/04 00:45:17;;;;;;;22.67;13.95;;;;;;;-145.45;100.00;62759.84;5281499;28;20029;-80
2022/03/04 00:47:48;;;;;;;21.50;13.75;;;;;;;-145.45;100.00;62759.84;5282441;28;20061;-80
2022/03/04 00:50:19;;;;;;;23.00;14.02;;;;;;;-145.45;100.00;62759.84;5282299;28;20481;-80
2022/03/04 00:52:50;;;;;;;20.67;13.85;;;;;;;-145.45;100.00;62759.84;5282030;28;20039;-80
2022/03/04 00:55:22;;;;;;;22.40;14.82;;;;;;;-145.45;100.00;62759.84;5280918;28;20033;-80
2022/03/04 00:57:53;;;;;;;20.10;13.88;;;;;;;-145.45;100.00;62759.84;5282043;28;20013;-80
2022/03/04 01:00:25;;;;;;;24.17;14.43;;;;;;;-145.45;100.00;62759.84;5282188;28;20025;-80
2022/03/04 01:02:56;;;;;;;24.45;14.40;;;;;;;-145.45;100.00;62759.84;5264286;28;20037;-79
2022/03/04 01:05:27;;;;;;;21.77;14.18;;;;;;;-145.45;100.00;62759.84;5264185;28;36763;-80
2022/03/04 01:07:59;;;;;;;22.65;13.75;;;;;;;-145.45;100.00;62759.84;5281551;28;20524;-81
2022/03/04 01:10:30;;;;;;;24.83;14.77;;;;;;;-145.45;100.00;62759.84;5280768;28;20482;-81
2022/03/04 01:13:02;;;;;;;22.60;14.20;;;;;;;-145.45;100.00;62759.84;5282176;28;20088;-81
2022/03/04 01:15:33;;;;;;;26.23;14.73;;;;;;;-145.45;100.00;62759.84;5280676;28;20024;-81
2022/03/04 01:18:05;;;;;;;23.33;14.70;;;;;;;-145.45;100.00;62759.84;5280268;28;20087;-81
2022/03/04 01:20:37;;;;;;;22.33;14.63;;;;;;;-145.45;100.00;62759.84;5280840;28;20120;-81
2022/03/04 01:23:08;;;;;;;25.27;14.52;;;;;;;-145.45;100.00;62759.84;5280105;28;20342;-81
2022/03/04 01:25:41;;;;;;;22.10;14.57;;;;;;;-145.45;100.00;62759.84;5280263;28;20115;-81
2022/03/04 01:28:12;;;;;;;23.58;14.90;;;;;;;-145.45;100.00;62759.84;5280688;28;20033;-81
2022/03/04 01:30:43;;;;;;;23.02;15.32;;;;;;;-145.45;100.00;62759.84;5280238;28;20024;-81
2022/03/04 01:33:16;;;;;;;28.92;17.30;;;;;;;-145.45;100.00;62759.84;5280762;28;20036;-81
2022/03/04 01:35:47;;;;;;;24.45;14.65;;;;;;;-145.45;100.00;62759.84;5280761;28;20020;-81
2022/03/04 01:38:18;;;;;;;23.38;14.75;;;;;;;-145.45;100.00;62759.84;5262657;28;20032;-81
2022/03/04 01:40:50;;;;;;;24.95;15.57;;;;;;;-145.45;100.00;62759.84;5278174;28;20389;-81
2022/03/04 01:43:21;;;;;;;25.98;15.40;;;;;;;-145.45;100.00;62759.84;5280732;28;20058;-80
2022/03/04 01:45:52;;;;;;;28.65;16.50;;;;;;;-145.45;100.00;62759.84;5280264;28;20120;-81
2022/03/04 01:48:24;;;;;;;32.78;20.17;;;;;;;-145.45;100.00;62759.84;5280472;28;20029;-80
2022/03/04 01:50:55;;;;;;;27.48;16.35;;;;;;;-145.45;100.00;62759.84;5280241;28;20054;-80
2022/03/04 01:53:27;;;;;;;25.65;16.33;;;;;;;-145.45;100.00;62759.84;5279337;28;20049;-80
2022/03/04 01:55:59;;;;;;;24.95;15.88;;;;;;;-145.45;100.00;62759.84;5279381;28;20028;-81
2022/03/04 01:58:30;;;;;;;29.73;16.23;;;;;;;-145.45;100.00;62759.84;5280216;28;20083;-81
2022/03/04 02:01:03;;;;;;;27.90;16.58;;;;;;;-145.45;100.00;62759.84;5281097;28;20027;-81
2022/03/04 02:03:34;;;;;;;26.33;16.85;;;;;;;-145.45;100.00;62759.84;5280956;28;20116;-80
2022/03/04 02:06:06;;;;;;;27.17;16.88;;;;;;;-145.45;100.00;62759.84;5279437;28;20021;-81
2022/03/04 02:08:37;;;;;;;28.33;17.50;;;;;;;-145.45;100.00;62759.84;5280537;28;20025;-81
2022/03/04 02:11:08;;;;;;;27.20;16.10;;;;;;;-145.45;100.00;62759.84;5279329;28;20025;-81
2022/03/04 02:13:42;;;;;;;28.27;17.30;;;;;;;-145.45;100.00;62759.84;5278430;28;20021;-80
2022/03/04 02:16:21;;;;;;;28.60;16.83;;;;;;;-145.45;100.00;62759.84;5279257;28;20531;-81
2022/03/04 02:18:53;;;;;;;30.70;18.75;;;;;;;-145.45;100.00;62759.84;5280111;28;20358;-81
2022/03/04 02:21:26;;;;;;;33.42;17.80;;;;;;;-145.45;100.00;62759.84;5262008;28;20061;-80
2022/03/04 02:23:58;;;;;;;29.35;17.35;;;;;;;-145.45;100.00;62759.84;5280497;28;20436;-81
2022/03/04 02:26:29;;;;;;;30.52;18.50;;;;;;;-145.45;100.00;62759.84;5279734;28;20029;-80
2022/03/04 02:29:00;;;;;;;30.88;17.38;;;;;;;-145.45;100.00;62759.84;5281299;28;20033;-81
2022/03/04 02:31:32;;;;;;;31.48;17.98;;;;;;;-145.45;100.00;62759.84;5279806;28;20363;-81
2022/03/04 02:34:04;;;;;;;33.30;18.83;;;;;;;-145.45;100.00;62759.84;5280624;28;20017;-81
2022/03/04 02:36:39;;;;;;;29.77;18.77;;;;;;;-145.45;100.00;62759.84;5279947;28;20029;-80
2022/03/04 02:39:10;;;;;;;32.17;20.08;;;;;;;-145.45;100.00;62759.84;5261915;28;20021;-80
2022/03/04 02:41:42;;;;;;;30.05;17.65;;;;;;;-145.45;100.00;62759.84;5279344;28;20429;-81
2022/03/04 02:44:13;;;;;;;31.52;18.38;;;;;;;-145.45;100.00;62759.84;5280499;28;20044;-80
2022/03/04 02:46:45;;;;;;;33.25;19.05;;;;;;;-145.45;100.00;62759.84;5279301;28;20112;-81
2022/03/04 02:49:16;;;;;;;37.17;18.55;;;;;;;-145.45;100.00;62759.84;5279963;28;20076;-80
2022/03/04 02:51:47;;;;;;;31.80;18.55;;;;;;;-145.45;100.00;62759.84;5279738;28;20504;-80
2022/03/04 02:54:19;;;;;;;32.63;20.00;;;;;;;-145.45;100.00;62759.84;5281595;28;20029;-80
2022/03/04 02:56:50;;;;;;;29.00;18.60;;;;;;;-145.45;100.00;62759.84;5282011;28;20039;-80
2022/03/04 02:59:21;;;;;;;32.50;18.20;;;;;;;-145.45;100.00;62759.84;5283583;28;20431;-81
2022/03/04 03:01:53;;;;;;;30.42;18.95;;;;;;;-145.45;100.00;62759.84;5282988;28;20037;-79
2022/03/04 03:04:24;;;;;;;30.55;18.98;;;;;;;-145.45;100.00;62759.84;5283184;28;20029;-79
2022/03/04 03:06:55;;;;;;;31.58;19.58;;;;;;;-145.45;100.00;62759.84;5281206;28;20032;-80
2022/03/04 03:09:26;;;;;;;34.17;18.83;;;;;;;-145.45;100.00;62759.84;5283428;28;20032;-79
2022/03/04 03:11:58;;;;;;;31.80;18.90;;;;;;;-145.45;100.00;62759.84;5284232;28;20117;-79
2022/03/04 03:14:29;;;;;;;30.50;19.23;;;;;;;-145.45;100.00;62759.84;5267181;28;20120;-79
2022/03/04 03:17:00;;;;;;;30.85;19.33;;;;;;;-145.45;100.00;62759.84;5283842;28;20033;-79
2022/03/04 03:19:32;;;;;;;36.78;20.45;;;;;;;-145.45;100.00;62759.84;5285763;28;20025;-80
2022/03/04 03:22:04;;;;;;;32.50;20.70;;;;;;;-145.45;100.00;62759.84;5282976;28;20056;-80
2022/03/04 03:24:35;;;;;;;32.55;19.58;;;;;;;-145.45;100.00;62759.84;5281421;28;20053;-79
2022/03/04 03:27:06;;;;;;;34.80;20.45;;;;;;;-145.45;100.00;62759.84;5281534;28;20490;-79
2022/03/04 03:29:38;;;;;;;34.70;20.95;;;;;;;-145.45;100.00;62759.84;5282672;28;20029;-79
2022/03/04 03:32:13;;;;;;;35.80;20.50;;;;;;;-145.45;100.00;62759.84;5282877;28;20040;-79
2022/03/04 03:34:44;;;;;;;30.45;19.33;;;;;;;-145.45;100.00;62759.84;5281116;28;20033;-79
2022/03/04 03:37:15;;;;;;;36.28;21.42;;;;;;;-145.45;100.00;62759.84;5282457;28;20029;-79
2022/03/04 03:39:47;;;;;;;36.15;21.38;;;;;;;-145.45;100.00;62759.84;5282390;28;20105;-79
2022/03/04 03:42:18;;;;;;;32.80;20.60;;;;;;;-145.45;100.00;62759.84;5264289;28;20520;-79
2022/03/04 03:44:49;;;;;;;33.35;20.35;;;;;;;-145.45;100.00;62759.84;5263670;28;20029;-79
2022/03/04 03:47:21;;;;;;;30.08;19.67;;;;;;;-145.45;100.00;62759.84;5264440;28;20024;-79
2022/03/04 03:49:52;;;;;;;34.55;20.05;;;;;;;-145.45;100.00;62759.84;5282775;28;20033;-79
2022/03/04 03:52:23;;;;;;;36.15;20.58;;;;;;;-145.45;100.00;62759.84;5282538;28;20037;-79
2022/03/04 03:54:55;;;;;;;34.78;20.67;;;;;;;-145.45;100.00;62759.84;5263287;28;20489;-79
2022/03/04 03:57:26;;;;;;;34.15;20.38;;;;;;;-145.45;100.00;62759.84;5284002;28;20028;-81
2022/03/04 03:59:57;;;;;;;33.42;20.75;;;;;;;-145.45;100.00;62759.84;5280431;28;20033;-81
2022/03/04 04:02:28;;;;;;;35.08;20.58;;;;;;;-145.45;100.00;62759.84;5281875;28;20036;-81
2022/03/04 04:05:00;;;;;;;36.58;21.02;;;;;;;-145.45;100.00;62759.84;5281592;28;20036;-81
2022/03/04 04:07:31;;;;;;;33.20;20.15;;;;;;;-145.45;100.00;62759.84;5283906;28;20120;-81
2022/03/04 04:10:03;;;;;;;34.92;20.23;;;;;;;-145.45;100.00;62759.84;5264767;28;20079;-81
2022/03/04 04:12:34;;;;;;;34.28;21.42;;;;;;;-145.45;100.00;62759.84;5281513;28;20033;-81
2022/03/04 04:15:06;;;;;;;36.92;20.23;;;;;;;-145.45;100.00;62759.84;5280999;28;20565;-80
2022/03/04 04:17:37;;;;;;;36.83;20.88;;;;;;;-145.45;100.00;62759.84;5276512;28;20374;-80
2022/03/04 04:20:09;;;;;;;34.33;21.23;;;;;;;-145.45;100.00;62759.84;5282300;28;20493;-80
2022/03/04 04:22:40;;;;;;;33.53;20.67;;;;;;;-145.45;100.00;62759.84;5281348;28;20104;-80
2022/03/04 04:25:11;;;;;;;36.00;21.80;;;;;;;-145.45;100.00;62759.84;5281536;28;20404;-80
2022/03/04 04:27:43;;;;;;;33.63;20.27;;;;;;;-145.45;100.00;62759.84;5264075;28;20072;-80
2022/03/04 04:30:14;;;;;;;35.85;21.25;;;;;;;-145.45;100.00;62759.84;5281582;28;20028;-80
2022/03/04 04:32:46;;;;;;;35.63;20.58;;;;;;;-145.45;100.00;62759.84;5281532;28;20397;-80
2022/03/04 04:35:17;;;;;;;38.60;21.17;;;;;;;-145.45;100.00;62759.84;5282144;28;20021;-80
2022/03/04 04:37:48;;;;;;;36.42;21.30;;;;;;;-145.45;100.00;62759.84;5282311;28;20041;-80
2022/03/04 04:40:20;;;;;;;36.83;21.10;;;;;;;-145.45;100.00;62759.84;5281019;28;20036;-80
2022/03/04 04:42:51;;;;;;;41.35;22.63;;;;;;;-145.45;100.00;62759.84;5280837;28;20083;-80
2022/03/04 04:45:23;;;;;;;36.10;21.17;;;;;;;-145.45;100.00;62759.84;5281135;28;20018;-80
2022/03/04 04:47:54;;;;;;;36.72;21.92;;;;;;;-145.45;100.00;62759.84;5279771;28;20051;-81
2022/03/04 04:50:25;;;;;;;34.95;21.05;;;;;;;-145.45;100.00;62759.84;5280976;28;20132;-77
2022/03/04 04:52:57;;;;;;;37.70;21.92;;;;;;;-145.45;100.00;62759.84;5281338;28;20087;-80
2022/03/04 04:55:28;;;;;;;36.15;22.02;;;;;;;-145.45;100.00;62759.84;5280170;28;20029;-80
2022/03/04 04:57:59;;;;;;;37.53;21.75;;;;;;;-145.45;100.00;62759.84;5280972;28;20021;-80
2022/03/04 05:00:31;;;;;;;37.65;21.80;;;;;;;-145.45;100.00;62759.84;5279434;28;20032;-78
2022/03/04 05:03:02;;;;;;;40.70;23.95;;;;;;;-145.45;100.00;62759.84;5280063;28;20319;-78
2022/03/04 05:05:34;;;;;;;40.03;23.05;;;;;;;-145.45;100.00;62759.84;5280759;28;20025;-78
2022/03/04 05:08:06;;;;;;;46.85;25.65;;;;;;;-145.45;100.00;62759.84;5261453;28;20092;-78
2022/03/04 05:10:38;;;;;;;54.60;28.08;;;;;;;-145.45;100.00;62759.84;5245126;28;20195;-78
2022/03/04 05:13:09;;;;;;;49.55;26.98;;;;;;;-145.45;100.00;62759.84;5280108;28;20029;-78
2022/03/04 05:15:41;;;;;;;51.20;27.80;;;;;;;-145.45;100.00;62759.84;5259357;28;20044;-79
2022/03/04 05:18:12;;;;;;;43.67;24.48;;;;;;;-145.45;100.00;62759.84;5279945;28;20529;-80
2022/03/04 05:20:44;;;;;;;48.20;25.35;;;;;;;-145.45;100.00;62759.84;5283228;28;20385;-79
2022/03/04 05:23:58;;;;;;;46.53;25.80;;;;;;;-145.45;100.00;62759.84;5281936;28;20040;-79
2022/03/04 05:26:07;;;;;;;45.78;25.35;;;;;;;-145.45;100.00;62759.84;5281176;28;20029;-79
2022/03/04 05:28:38;;;;;;;39.80;23.65;;;;;;;-145.45;100.00;62759.84;5285255;28;20029;-79
2022/03/04 05:31:09;;;;;;;37.50;23.27;;;;;;;-145.45;100.00;62759.84;5284572;28;20465;-79
2022/03/04 05:33:40;;;;;;;35.15;20.85;;;;;;;-145.45;100.00;62759.84;5282109;28;20428;-79
2022/03/04 05:36:12;;;;;;;33.90;20.85;;;;;;;-145.45;100.00;62759.84;5279748;28;40840;-79
2022/03/04 05:38:48;;;;;;;35.72;20.13;;;;;;;-145.45;100.00;62759.84;5262416;28;20032;-79
2022/03/04 05:41:20;;;;;;;35.63;19.58;;;;;;;-145.45;100.00;62759.84;5279799;28;20029;-79
2022/03/04 05:43:51;;;;;;;34.13;20.50;;;;;;;-145.45;100.00;62759.84;5281442;28;20021;-79
2022/03/04 05:46:23;;;;;;;37.25;21.65;;;;;;;-145.45;100.00;62759.84;5280068;28;20186;-79
2022/03/04 05:48:54;;;;;;;35.80;20.70;;;;;;;-145.45;100.00;62759.84;5278715;28;20029;-79
2022/03/04 05:51:25;;;;;;;32.13;20.40;;;;;;;-145.45;100.00;62759.84;5280544;28;20117;-80
2022/03/04 05:53:57;;;;;;;34.90;20.15;;;;;;;-145.45;100.00;62759.84;5280574;28;20052;-79
2022/03/04 05:56:29;;;;;;;33.78;20.80;;;;;;;-145.45;100.00;62759.84;5280804;28;20065;-79
2022/03/04 05:59:00;;;;;;;34.88;20.58;;;;;;;-145.45;100.00;62759.84;5280830;28;20470;-79
2022/03/04 06:01:32;;;;;;;35.42;21.35;;;;;;;-145.45;100.00;62759.84;5280666;28;20051;-79
2022/03/04 06:04:03;;;;;;;33.50;19.98;;;;;;;-145.45;100.00;62759.84;5280984;28;20036;-79
2022/03/04 06:06:34;;;;;;;38.70;22.02;;;;;;;-145.45;100.00;62759.84;5261769;28;20103;-79
2022/03/04 06:09:06;;;;;;;34.60;20.20;;;;;;;-145.45;100.00;62759.84;5280194;28;20021;-79
2022/03/04 06:11:37;;;;;;;36.83;20.58;;;;;;;-145.45;100.00;62759.84;5279688;28;20116;-79
2022/03/04 06:14:08;;;;;;;36.78;22.02;;;;;;;-145.45;100.00;62759.84;5279414;28;20515;-79
2022/03/04 06:16:40;;;;;;;34.78;21.58;;;;;;;-145.45;100.00;62759.84;5274349;28;20375;-79
2022/03/04 06:19:11;;;;;;;37.92;22.63;;;;;;;-145.45;100.00;62759.84;5276182;28;20043;-80
2022/03/04 06:21:42;;;;;;;36.92;21.52;;;;;;;-145.45;100.00;62759.84;5278668;28;20037;-80
2022/03/04 06:24:14;;;;;;;34.50;21.08;;;;;;;-145.45;100.00;62759.84;5278925;28;20030;-80
2022/03/04 06:26:45;;;;;;;36.53;21.00;;;;;;;-145.45;100.00;62759.84;5279387;28;20382;-80
2022/03/04 06:29:16;;;;;;;36.38;21.50;;;;;;;-145.45;100.00;62759.84;5266029;28;20028;-79
2022/03/04 06:31:48;;;;;;;36.22;20.70;;;;;;;-145.45;100.00;62759.84;5284899;28;20029;-79
2022/03/04 06:34:19;;;;;;;36.05;21.63;;;;;;;-145.45;100.00;62759.84;5285019;28;20049;-80
2022/03/04 06:36:51;;;;;;;35.05;20.52;;;;;;;-145.45;100.00;62759.84;5283765;28;20025;-80
2022/03/04 06:39:22;;;;;;;36.53;21.27;;;;;;;-145.45;100.00;62759.84;5284910;28;20028;-80
2022/03/04 06:41:53;;;;;;;40.92;21.88;;;;;;;-145.45;100.00;62759.84;5284975;28;20293;-79
2022/03/04 06:44:25;;;;;;;37.72;21.80;;;;;;;-145.45;100.00;62759.84;5285566;28;20020;-79
2022/03/04 06:46:56;;;;;;;37.95;22.27;;;;;;;-145.45;100.00;62759.84;5285749;28;20013;-79
2022/03/04 06:49:28;;;;;;;36.13;20.50;;;;;;;-145.45;100.00;62759.84;5285059;28;20048;-79
2022/03/04 06:51:59;;;;;;;38.08;20.75;;;;;;;-145.45;100.00;62759.84;5266710;28;20021;-80
2022/03/04 06:54:32;;;;;;;36.88;21.20;;;;;;;-145.45;100.00;62759.84;5281282;28;41778;-79
2022/03/04 06:57:04;;;;;;;36.55;21.90;;;;;;;-145.45;100.00;62759.84;5266628;28;20078;-80
2022/03/04 06:59:35;;;;;;;38.03;20.67;;;;;;;-145.45;100.00;62759.84;5281081;28;20504;-80
2022/03/04 07:02:07;;;;;;;33.63;20.17;;;;;;;-145.45;100.00;62759.84;5284842;28;20071;-80
2022/03/04 07:04:38;;;;;;;35.67;19.65;;;;;;;-145.45;100.00;62759.84;5284822;28;20045;-80
2022/03/04 07:07:09;;;;;;;38.17;21.33;;;;;;;-145.45;100.00;62759.84;5285198;28;20533;-80
2022/03/04 07:09:40;;;;;;;36.55;21.88;;;;;;;-145.45;100.00;62759.84;5266225;28;20041;-80
2022/03/04 07:12:12;;;;;;;35.33;20.50;;;;;;;-145.45;100.00;62759.84;5284532;28;20017;-80
2022/03/04 07:14:43;;;;;;;36.78;20.27;;;;;;;-145.45;100.00;62759.84;5284162;28;20024;-79
2022/03/04 07:17:14;;;;;;;35.22;21.60;;;;;;;-145.45;100.00;62759.84;5283933;28;20104;-80
2022/03/04 07:19:46;;;;;;;36.85;20.92;;;;;;;-145.45;100.00;62759.84;5284058;28;20385;-80
2022/03/04 07:22:17;;;;;;;38.80;23.20;;;;;;;-145.45;100.00;62759.84;5284620;28;20040;-80
2022/03/04 07:24:48;;;;;;;40.08;23.00;;;;;;;-145.45;100.00;62759.84;5283950;28;20394;-80
2022/03/04 07:27:19;;;;;;;36.22;21.40;;;;;;;-145.45;100.00;62759.84;5284061;28;20381;-80
2022/03/04 07:29:51;;;;;;;32.25;20.50;;;;;;;-145.45;100.00;62759.84;5283651;28;20136;-80
2022/03/04 07:32:22;;;;;;;30.50;19.75;;;;;;;-145.45;100.00;62759.84;5285038;28;20021;-81
2022/03/04 07:34:54;;;;;;;31.73;19.88;;;;;;;-145.45;100.00;62759.84;5283735;28;20100;-81
2022/03/04 07:37:26;;;;;;;31.80;19.27;;;;;;;-145.45;100.00;62759.84;5283935;28;20507;-81
2022/03/04 07:39:57;;;;;;;29.80;18.00;;;;;;;-145.45;100.00;62759.84;5283158;28;20422;-81
2022/03/04 07:42:28;;;;;;;31.40;18.23;;;;;;;-145.45;100.00;62759.84;5267198;28;20025;-81
2022/03/04 07:45:00;;;;;;;30.58;18.55;;;;;;;-145.45;100.00;62759.84;5284821;28;20520;-81
2022/03/04 07:47:31;;;;;;;29.25;17.65;;;;;;;-145.45;100.00;62759.84;5283554;28;20101;-81
2022/03/04 07:50:08;;;;;;;28.50;17.85;;;;;;;-145.45;100.00;62759.84;5282343;28;20061;-82
2022/03/04 07:52:43;;;;;;;27.63;17.85;;;;;;;-145.45;100.00;62759.84;5283312;28;20032;-80
2022/03/04 07:55:16;;;;;;;24.50;17.67;;;;;;;-145.45;100.00;62759.84;5285112;28;20061;-80
2022/03/04 07:57:47;;;;;;;24.30;17.08;;;;;;;-145.45;100.00;62759.84;5267119;28;20017;-80
2022/03/04 08:00:18;;;;;;;24.58;17.98;;;;;;;-145.45;100.00;62759.84;5287280;28;20029;-80
2022/03/04 08:02:50;;;;;;;26.00;18.25;;;;;;;-145.45;100.00;62759.84;5282180;28;20052;-81
2022/03/04 08:05:21;;;;;;;26.55;17.95;;;;;;;-145.45;100.00;62759.84;5267083;28;20036;-80
2022/03/04 08:07:53;;;;;;;23.20;16.92;;;;;;;-145.45;100.00;62759.84;5264637;28;20492;-81
2022/03/04 08:10:24;;;;;;;28.40;17.98;;;;;;;-145.45;100.00;62759.84;5282174;28;20013;-82
2022/03/04 08:12:56;;;;;;;24.83;17.73;;;;;;;-145.45;100.00;62759.84;5283429;28;20039;-80
2022/03/04 08:15:27;;;;;;;22.25;17.17;;;;;;;-145.45;100.00;62759.84;5282526;28;20033;-81
2022/03/04 08:17:58;;;;;;;24.58;17.13;;;;;;;-145.45;100.00;62759.84;5282609;28;20029;-81
2022/03/04 08:20:31;;;;;;;23.70;17.23;;;;;;;-145.45;100.00;62759.84;5282131;28;20036;-81
2022/03/04 08:23:03;;;;;;;23.10;18.27;;;;;;;-145.45;100.00;62759.84;5282322;28;20330;-82
2022/03/04 08:25:34;;;;;;;20.20;16.77;;;;;;;-145.45;100.00;62759.84;5263076;28;20094;-81
2022/03/04 08:28:06;;;;;;;23.98;17.35;;;;;;;-145.45;100.00;62759.84;5282433;28;20040;-81
2022/03/04 08:30:37;;;;;;;21.65;17.10;;;;;;;-145.45;100.00;62759.84;5282463;28;20120;-81
2022/03/04 08:33:08;;;;;;;24.80;17.60;;;;;;;-145.45;100.00;62759.84;5282620;28;20116;-82
2022/03/04 08:35:40;;;;;;;22.92;17.38;;;;;;;-145.45;100.00;62759.84;5281816;28;20466;-82
2022/03/04 08:38:11;;;;;;;24.20;16.95;;;;;;;-145.45;100.00;62759.84;5282238;28;20112;-82
2022/03/04 08:40:42;;;;;;;24.92;17.33;;;;;;;-145.45;100.00;62759.84;5280987;28;20025;-82
2022/03/04 08:43:14;;;;;;;20.95;16.70;;;;;;;-145.45;100.00;62759.84;5282477;28;20044;-81
2022/03/04 08:45:45;;;;;;;20.65;16.33;;;;;;;-145.45;100.00;62759.84;5263646;28;20119;-81
2022/03/04 08:48:16;;;;;;;24.25;16.83;;;;;;;-145.45;100.00;62759.84;5282334;28;20031;-81
2022/03/04 08:50:47;;;;;;;20.88;16.30;;;;;;;-145.45;100.00;62759.84;5278583;28;20449;-80
2022/03/04 08:53:19;;;;;;;21.60;16.48;;;;;;;-145.45;100.00;62759.84;5263755;28;20029;-80
2022/03/04 08:55:50;;;;;;;21.08;17.15;;;;;;;-145.45;100.00;62759.84;5262761;28;20048;-81
2022/03/04 08:58:22;;;;;;;21.27;17.02;;;;;;;-145.45;100.00;62759.84;5282785;28;20488;-81
2022/03/04 09:00:53;;;;;;;20.05;16.95;;;;;;;-145.45;100.00;62759.84;5281854;28;20075;-81
2022/03/04 09:03:24;;;;;;;17.67;15.52;;;;;;;-145.45;100.00;62759.84;5264310;28;20033;-81
2022/03/04 09:05:56;;;;;;;21.45;17.50;;;;;;;-145.45;100.00;62759.84;5263027;28;20021;-80
2022/03/04 09:08:27;;;;;;;21.20;17.05;;;;;;;-145.45;100.00;62759.84;5281771;28;20323;-81
2022/03/04 09:10:58;;;;;;;20.92;16.80;;;;;;;-145.45;100.00;62759.84;5281081;28;20033;-80
2022/03/04 09:13:32;;;;;;;22.50;16.63;;;;;;;-145.45;100.00;62759.84;5282451;28;20040;-81
2022/03/04 09:16:04;;;;;;;19.42;16.77;;;;;;;-145.45;100.00;62759.84;5282460;28;20021;-81
2022/03/04 09:18:35;;;;;;;22.15;17.17;;;;;;;-145.45;100.00;62759.84;5279939;28;20037;-82
2022/03/04 09:21:07;;;;;;;19.77;16.65;;;;;;;-145.45;100.00;62759.84;5282726;28;20083;-81
2022/03/04 09:23:39;;;;;;;18.55;16.65;;;;;;;-145.45;100.00;62759.84;5251085;28;20334;-81
2022/03/04 09:26:10;;;;;;;22.55;17.20;;;;;;;-145.45;100.00;62759.84;5264822;28;20675;-81
2022/03/04 09:28:41;;;;;;;20.77;17.00;;;;;;;-145.45;100.00;62759.84;5281842;28;20034;-81
2022/03/04 09:31:13;;;;;;;19.33;16.73;;;;;;;-145.45;100.00;62759.84;5282340;28;20099;-81
2022/03/04 09:33:47;;;;;;;21.85;17.23;;;;;;;-145.45;100.00;62759.84;5264700;28;20362;-81
2022/03/04 09:36:19;;;;;;;17.92;16.00;;;;;;;-145.45;100.00;62759.84;5263836;28;20115;-82
2022/03/04 09:38:50;;;;;;;21.52;16.77;;;;;;;-145.45;100.00;62759.84;5283305;28;20716;-81
2022/03/04 09:41:21;;;;;;;21.33;17.35;;;;;;;-145.45;100.00;62759.84;5286500;28;20036;-80
2022/03/04 09:43:54;;;;;;;19.50;16.20;;;;;;;-145.45;100.00;62759.84;5289360;28;20394;-81
2022/03/04 09:46:26;;;;;;;18.60;16.67;;;;;;;-145.45;100.00;62759.84;5293003;28;20075;-81
2022/03/04 09:48:57;;;;;;;20.98;16.88;;;;;;;-145.45;100.00;62759.84;5294075;28;20386;-81
2022/03/04 09:51:28;;;;;;;18.95;16.13;;;;;;;-145.45;100.00;62759.84;5276303;28;20032;-81
2022/03/04 09:54:00;;;;;;;19.70;17.63;;;;;;;-145.45;100.00;62759.84;5303734;28;20013;-82
2022/03/04 09:56:32;;;;;;;20.70;16.80;;;;;;;-145.45;100.00;62759.84;5292742;28;20068;-81
2022/03/04 09:59:03;;;;;;;18.02;16.13;;;;;;;-145.45;100.00;62759.84;5283239;28;20517;-82
2022/03/04 10:01:34;;;;;;;21.80;15.20;;;;;;;-145.45;100.00;62759.84;5264420;28;20488;-82
2022/03/04 10:04:06;;;;;;;20.17;15.68;;;;;;;-145.45;100.00;62759.84;5283797;28;20029;-81
2022/03/04 10:06:43;;;;;;;19.77;16.75;;;;;;;-145.45;100.00;62759.84;5282242;28;20347;-82
2022/03/04 10:09:39;;;;;;;18.40;16.35;;;;;;;-145.45;100.00;62759.84;5273474;28;20029;-81
2022/03/04 10:12:13;;;;;;;21.33;16.83;;;;;;;-145.45;100.00;62759.84;5307855;28;20034;-82
2022/03/04 10:14:58;;;;;;;18.73;16.73;;;;;;;-145.45;100.00;62759.84;5286070;28;20036;-82
2022/03/04 10:17:31;;;;;;;20.92;16.75;;;;;;;-145.45;100.00;62759.84;5276490;28;20055;-82
2022/03/04 10:20:14;;;;;;;21.00;16.92;;;;;;;-145.45;100.00;62759.84;5297029;28;20158;-81
2022/03/04 10:22:46;;;;;;;19.85;16.50;;;;;;;-145.45;100.00;62759.84;5296305;28;20041;-82
2022/03/04 10:25:23;;;;;;;18.50;16.38;;;;;;;-145.45;100.00;62759.84;5287939;28;20381;-83
2022/03/04 10:28:08;;;;;;;19.02;16.67;;;;;;;-145.45;100.00;62759.84;5285308;28;20053;-82
2022/03/04 10:30:43;;;;;;;17.20;15.43;;;;;;;-145.45;100.00;62759.84;5281898;28;20030;-82
2022/03/04 10:33:18;;;;;;;18.05;16.00;;;;;;;-145.45;100.00;62759.84;5282729;28;20369;-82
2022/03/04 10:36:10;;;;;;;18.40;15.48;;;;;;;-145.45;100.00;62759.84;5263763;28;20051;-82
2022/03/04 10:38:42;;;;;;;17.83;15.38;;;;;;;-145.45;100.00;62759.84;5282481;28;20021;-82
2022/03/04 10:41:48;;;;;;;18.38;15.65;;;;;;;-145.45;100.00;62759.84;5262670;28;20021;-82
2022/03/04 10:44:27;;;;;;;18.67;15.77;;;;;;;-145.45;100.00;62759.84;5281834;28;20025;-82
2022/03/04 10:46:58;;;;;;;17.20;15.43;;;;;;;-145.45;100.00;62759.84;5281902;28;20037;-82
2022/03/04 10:49:30;;;;;;;16.77;14.95;;;;;;;-145.45;100.00;62759.84;5281832;28;20486;-82
2022/03/04 10:52:06;;;;;;;17.58;15.40;;;;;;;-145.45;100.00;62759.84;5268587;28;20025;-82
2022/03/04 10:54:38;;;;;;;18.85;15.02;;;;;;;-145.45;100.00;62759.84;5263555;28;20029;-83
2022/03/04 10:57:09;;;;;;;16.33;14.60;;;;;;;-145.45;100.00;62759.84;5263090;28;20472;-83
2022/03/04 10:59:54;;;;;;;19.50;15.18;;;;;;;-145.45;100.00;62759.84;5281956;28;20025;-83
2022/03/04 11:02:43;;;;;;;18.23;14.73;;;;;;;-145.45;100.00;62759.84;5280945;28;20056;-83
2022/03/04 11:05:15;;;;;;;16.88;15.07;;;;;;;-145.45;100.00;62759.84;5280759;28;20029;-84
2022/03/04 11:07:49;;;;;;;16.77;15.02;;;;;;;-145.45;100.00;62759.84;5281518;28;20029;-87
2022/03/04 11:10:25;;;;;;;16.58;14.98;;;;;;;-145.45;100.00;62759.84;5280405;28;20104;-85
2022/03/04 11:12:56;;;;;;;;;;;;;;;-145.45;100.00;62759.84;5281548;28;20029;-86
2022/03/04 11:15:28;;;;;;;16.98;14.85;;;;;;;-145.45;100.00;62759.84;5266703;28;19913;-86
2022/03/04 11:18:05;;;;;;;16.60;14.88;;;;;;;-145.45;100.00;62759.84;5285686;28;20033;-86